»·PEaware :: N5TN KSBA-KPSP

N5TN :: KSBA-KPSP

FLIGHT INFORMATION

Flight Status: Arrived
Operator: Privately registered:
United States
More flights under this callsign
Pilot: Nehseem A. (13724)
Aircraft: BOEING 737-200
(B732)
More flights by this aircraft type
Origin: KSBA Santa Barbara Mun
United States
Destination: KPSP Palm Springs Intl
United States
More flights between these airports :: More routes between these airports
Route: +KWANG5 HENER PMD V137 PSP
File this flight plan on PilotEdge
Remarks:
Altitude:
(Current/Filed)
19,000ft
Speed:
(Current/Filed)
418kts
Departed: 11-Sep-18 06:38 PM
Arrived: 11-Sep-18 07:21 PM
Distance/Time
Traveled:
169nm/0:43
Distance/Time
To Go:
Arrived

Flight Plot

Page will automatically refresh every two minutes.


Map Options




Map Legend


Flown Route
Filed Route
Departure Airport
Arrival Airport
Navaid (VOR, NDB)
Fix

Horizontal Profiles

Position Reports

Time Latitude Longitude Heading Altitude Ground
Speed
11-Sep-18 18:03 34.422586 -119.835560 340 22ft 0kts
11-Sep-18 18:04 34.422586 -119.835560 340 22ft 0kts
11-Sep-18 18:05 34.422586 -119.835560 340 22ft 0kts
11-Sep-18 18:06 34.422586 -119.835560 340 22ft 0kts
11-Sep-18 18:07 34.422586 -119.835560 340 22ft 0kts
11-Sep-18 18:08 34.422586 -119.835560 340 22ft 0kts
11-Sep-18 18:09 34.422586 -119.835560 340 22ft 0kts
11-Sep-18 18:10 34.422586 -119.835560 340 22ft 0kts
11-Sep-18 18:11 34.422586 -119.835560 340 22ft 0kts
11-Sep-18 18:12 34.422586 -119.835560 340 22ft 0kts
11-Sep-18 18:13 34.422585 -119.835560 340 22ft 0kts
11-Sep-18 18:14 34.422585 -119.835560 340 22ft 0kts
11-Sep-18 18:15 34.422585 -119.835560 340 22ft 0kts
11-Sep-18 18:16 34.422585 -119.835560 340 22ft 0kts
11-Sep-18 18:17 34.422585 -119.835560 340 22ft 0kts
11-Sep-18 18:18 34.422585 -119.835560 340 22ft 0kts
11-Sep-18 18:19 34.422585 -119.835560 340 22ft 0kts
11-Sep-18 18:20 34.422585 -119.835560 340 22ft 0kts
11-Sep-18 18:21 34.422585 -119.835560 340 22ft 0kts
11-Sep-18 18:22 34.422585 -119.835560 340 22ft 0kts
11-Sep-18 18:23 34.422585 -119.835560 340 22ft 0kts
11-Sep-18 18:24 34.422585 -119.835560 340 22ft 0kts
11-Sep-18 18:25 34.422585 -119.835560 340 22ft 0kts
11-Sep-18 18:26 34.422585 -119.835560 340 22ft 0kts
11-Sep-18 18:27 34.422585 -119.835560 340 22ft 0kts
11-Sep-18 18:28 34.422585 -119.835560 340 22ft 0kts
11-Sep-18 18:29 34.422585 -119.835560 340 22ft 0kts
11-Sep-18 18:30 34.422585 -119.835560 340 22ft 0kts
11-Sep-18 18:31 34.422585 -119.835560 340 22ft 0kts
11-Sep-18 18:32 34.422585 -119.835560 340 22ft 0kts
11-Sep-18 18:33 34.422585 -119.835560 340 22ft 0kts
11-Sep-18 18:34 34.422586 -119.835560 340 22ft 0kts
11-Sep-18 18:35 34.422854 -119.836094 265 22ft 0kts
11-Sep-18 18:36 34.423586 -119.837375 337 22ft 12kts
11-Sep-18 18:37 34.426728 -119.837344 87 22ft 11kts
11-Sep-18 18:38 34.427012 -119.834645 10 22ft 0kts
11-Sep-18 18:39 34.427158 -119.834647 356 22ft 4kts
11-Sep-18 18:40 34.427702 -119.845295 268 22ft 124kts
11-Sep-18 18:41 34.407287 -119.887554 175 2205ft 200kts
11-Sep-18 18:42 34.389389 -119.822147 71 3122ft 270kts
11-Sep-18 18:43 34.389488 -119.733780 102 2976ft 259kts
11-Sep-18 18:44 34.364801 -119.648765 116 5889ft 291kts
11-Sep-18 18:45 34.330282 -119.557337 112 8110ft 311kts
11-Sep-18 18:46 34.303904 -119.464006 92 8021ft 284kts
11-Sep-18 18:47 34.309682 -119.367723 78 10259ft 298kts
11-Sep-18 18:48 34.328417 -119.276172 67 13073ft 315kts
11-Sep-18 18:49 34.358592 -119.174608 63 15420ft 345kts
11-Sep-18 18:50 34.396160 -119.058737 70 16666ft 400kts
11-Sep-18 18:51 34.426511 -118.925595 75 18536ft 423kts
11-Sep-18 18:52 34.455295 -118.782896 74 18896ft 437kts
11-Sep-18 18:53 34.490105 -118.645856 69 18906ft 430kts
11-Sep-18 18:54 34.529351 -118.509772 70 18919ft 432kts
11-Sep-18 18:55 34.559534 -118.370058 77 18910ft 435kts
11-Sep-18 18:56 34.586940 -118.236584 71 18906ft 435kts
11-Sep-18 18:57 34.623198 -118.099667 72 18921ft 435kts
11-Sep-18 18:58 34.592873 -117.970515 137 18951ft 427kts
11-Sep-18 18:59 34.535370 -117.845026 122 19065ft 429kts
11-Sep-18 19:00 34.476780 -117.719782 117 18923ft 428kts
11-Sep-18 19:01 34.420201 -117.596698 123 18929ft 419kts
11-Sep-18 19:02 34.365211 -117.472899 119 18923ft 422kts
11-Sep-18 19:03 34.298638 -117.332702 120 18899ft 424kts
11-Sep-18 19:04 34.251239 -117.229698 120 18892ft 425kts
11-Sep-18 19:05 34.194551 -117.106109 121 18723ft 418kts
11-Sep-18 19:06 34.138306 -116.990697 123 16474ft 405kts
11-Sep-18 19:07 34.081451 -116.880984 122 15047ft 366kts
11-Sep-18 19:08 34.031299 -116.785682 124 14573ft 328kts
11-Sep-18 19:09 33.982123 -116.693033 122 12800ft 325kts
11-Sep-18 19:10 33.939639 -116.599225 114 11226ft 317kts
11-Sep-18 19:11 33.904709 -116.504043 117 9855ft 305kts
11-Sep-18 19:12 33.863704 -116.419303 121 8404ft 301kts
11-Sep-18 19:13 33.822361 -116.336696 121 6822ft 293kts
11-Sep-18 19:14 33.782218 -116.256778 120 5080ft 279kts
11-Sep-18 19:15 33.738813 -116.186901 158 3776ft 248kts
11-Sep-18 19:16 33.690767 -116.216676 259 3670ft 215kts
11-Sep-18 19:17 33.701121 -116.285001 290 2854ft 201kts
11-Sep-18 19:18 33.722255 -116.345328 296 2568ft 193kts
11-Sep-18 19:19 33.746289 -116.398984 297 2223ft 154kts
11-Sep-18 19:20 33.762780 -116.436750 301 1524ft 149kts
11-Sep-18 19:21 33.794362 -116.476010 323 1023ft 143kts
11-Sep-18 19:22 33.825964 -116.504356 323 487ft 135kts
11-Sep-18 19:23 33.836569 -116.513913 288 486ft 18kts
11-Sep-18 19:24 33.834042 -116.513704 143 486ft 13kts

Navigation Log

Ident Type
1. KSBA Airport
2. KWANG Fix
3. HENER Fix
4. PMD Navaid
5. PURPS Fix
6. HESPE Fix
7. HITOP Fix
8. ARRAN Fix
9. MORON Fix
10. WHETO Fix
11. PSP Navaid
12. KPSP Airport